sensor_id;sensor_type;location;lat;lon;timestamp;pressure;altitude;pressure_sealevel;temperature;humidity
47556;BME280;33291;46.222;26.460;2023-02-10T00:01:05;98422.16;;;-10.41;69.90
47556;BME280;33291;46.222;26.460;2023-02-10T00:03:32;98411.28;;;-10.39;69.97
47556;BME280;33291;46.222;26.460;2023-02-10T00:05:58;98411.25;;;-10.40;69.59
47556;BME280;33291;46.222;26.460;2023-02-10T00:08:24;98412.09;;;-10.41;69.98
47556;BME280;33291;46.222;26.460;2023-02-10T00:10:49;98398.50;;;-10.48;69.94
47556;BME280;33291;46.222;26.460;2023-02-10T00:13:15;98412.97;;;-10.39;70.15
47556;BME280;33291;46.222;26.460;2023-02-10T00:15:40;98376.44;;;-10.57;69.31
47556;BME280;33291;46.222;26.460;2023-02-10T00:18:06;98411.25;;;-10.40;69.38
47556;BME280;33291;46.222;26.460;2023-02-10T00:20:31;98408.69;;;-10.42;69.20
47556;BME280;33291;46.222;26.460;2023-02-10T00:22:57;98391.66;;;-10.53;68.77
47556;BME280;33291;46.222;26.460;2023-02-10T00:25:22;98394.06;;;-10.57;68.68
47556;BME280;33291;46.222;26.460;2023-02-10T00:27:48;98408.34;;;-10.57;69.96
47556;BME280;33291;46.222;26.460;2023-02-10T00:30:13;98388.16;;;-10.59;69.98
47556;BME280;33291;46.222;26.460;2023-02-10T00:32:39;98389.00;;;-10.58;70.05
47556;BME280;33291;46.222;26.460;2023-02-10T00:35:08;98387.47;;;-10.53;70.34
47556;BME280;33291;46.222;26.460;2023-02-10T00:37:34;98381.47;;;-10.57;69.78
47556;BME280;33291;46.222;26.460;2023-02-10T00:40:00;98383.00;;;-10.63;69.59
47556;BME280;33291;46.222;26.460;2023-02-10T00:42:25;98375.44;;;-10.65;69.92
47556;BME280;33291;46.222;26.460;2023-02-10T00:44:51;98354.19;;;-10.76;70.19
47556;BME280;33291;46.222;26.460;2023-02-10T00:47:16;98373.84;;;-10.60;70.52
47556;BME280;33291;46.222;26.460;2023-02-10T00:49:42;98378.22;;;-10.52;69.62
47556;BME280;33291;46.222;26.460;2023-02-10T00:52:08;98375.59;;;-10.57;69.46
47556;BME280;33291;46.222;26.460;2023-02-10T00:54:33;98360.25;;;-10.68;70.13
47556;BME280;33291;46.222;26.460;2023-02-10T00:56:59;98369.66;;;-10.61;70.28
47556;BME280;33291;46.222;26.460;2023-02-10T00:59:24;98362.09;;;-10.61;70.03
47556;BME280;33291;46.222;26.460;2023-02-10T01:01:50;98362.16;;;-10.58;69.99
47556;BME280;33291;46.222;26.460;2023-02-10T01:04:15;98355.41;;;-10.59;70.64
47556;BME280;33291;46.222;26.460;2023-02-10T01:06:41;98318.09;;;-10.75;70.89
47556;BME280;33291;46.222;26.460;2023-02-10T01:09:06;98345.44;;;-10.54;70.71
47556;BME280;33291;46.222;26.460;2023-02-10T01:11:32;98346.31;;;-10.53;70.44
47556;BME280;33291;46.222;26.460;2023-02-10T01:13:57;98337.09;;;-10.53;70.86
47556;BME280;33291;46.222;26.460;2023-02-10T01:16:23;98340.41;;;-10.54;70.69
47556;BME280;33291;46.222;26.460;2023-02-10T01:18:48;98320.94;;;-10.61;70.56
47556;BME280;33291;46.222;26.460;2023-02-10T01:21:19;98336.09;;;-10.58;70.54
47556;BME280;33291;46.222;26.460;2023-02-10T01:23:45;98328.41;;;-10.64;69.63
47556;BME280;33291;46.222;26.460;2023-02-10T01:26:12;98331.81;;;-10.64;70.52
47556;BME280;33291;46.222;26.460;2023-02-10T01:28:38;98313.13;;;-10.72;70.24
47556;BME280;33291;46.222;26.460;2023-02-10T01:31:11;98293.41;;;-10.90;70.17
47556;BME280;33291;46.222;26.460;2023-02-10T01:33:37;98306.09;;;-10.85;69.87
47556;BME280;33291;46.222;26.460;2023-02-10T01:36:08;98322.28;;;-10.76;71.02
47556;BME280;33291;46.222;26.460;2023-02-10T01:38:34;98305.44;;;-10.78;70.56
47556;BME280;33291;46.222;26.460;2023-02-10T01:41:00;98311.47;;;-10.72;70.24
47556;BME280;33291;46.222;26.460;2023-02-10T01:43:25;98315.53;;;-10.77;69.87
47556;BME280;33291;46.222;26.460;2023-02-10T01:45:51;98309.66;;;-10.77;71.07
47556;BME280;33291;46.222;26.460;2023-02-10T01:48:17;98307.19;;;-10.76;70.56
47556;BME280;33291;46.222;26.460;2023-02-10T01:50:55;98308.03;;;-10.75;70.97
47556;BME280;33291;46.222;26.460;2023-02-10T01:53:23;98303.03;;;-10.74;71.28
47556;BME280;33291;46.222;26.460;2023-02-10T01:55:53;98306.34;;;-10.76;71.08
47556;BME280;33291;46.222;26.460;2023-02-10T01:58:21;98300.50;;;-10.74;71.11
47556;BME280;33291;46.222;26.460;2023-02-10T02:00:49;98302.22;;;-10.73;71.00
47556;BME280;33291;46.222;26.460;2023-02-10T02:03:15;98305.50;;;-10.75;71.42
47556;BME280;33291;46.222;26.460;2023-02-10T02:05:42;98292.03;;;-10.77;71.29
47556;BME280;33291;46.222;26.460;2023-02-10T02:08:19;98301.31;;;-10.76;71.29
47556;BME280;33291;46.222;26.460;2023-02-10T02:22:27;98282.63;;;-10.84;71.10
47556;BME280;33291;46.222;26.460;2023-02-10T02:30:59;98259.25;;;-11.17;70.12
47556;BME280;33291;46.222;26.460;2023-02-10T02:33:49;98282.84;;;-11.12;70.24
47556;BME280;33291;46.222;26.460;2023-02-10T02:36:21;98288.19;;;-11.33;70.34
47556;BME280;33291;46.222;26.460;2023-02-10T02:38:48;98294.88;;;-11.35;70.67
47556;BME280;33291;46.222;26.460;2023-02-10T02:41:23;98289.75;;;-11.38;71.30
47556;BME280;33291;46.222;26.460;2023-02-10T02:43:48;98267.69;;;-11.48;71.54
47556;BME280;33291;46.222;26.460;2023-02-10T02:54:23;98294.78;;;-11.38;72.10
47556;BME280;33291;46.222;26.460;2023-02-10T02:59:25;98288.28;;;-11.30;72.61
47556;BME280;33291;46.222;26.460;2023-02-10T03:01:58;98279.16;;;-11.26;72.28
47556;BME280;33291;46.222;26.460;2023-02-10T03:04:31;98279.84;;;-11.32;71.42
47556;BME280;33291;46.222;26.460;2023-02-10T03:06:58;98269.00;;;-11.29;71.75
47556;BME280;33291;46.222;26.460;2023-02-10T03:09:26;98253.75;;;-11.37;71.70
47556;BME280;33291;46.222;26.460;2023-02-10T03:11:52;98263.94;;;-11.31;71.40
47556;BME280;33291;46.222;26.460;2023-02-10T03:14:17;98263.03;;;-11.33;72.29
47556;BME280;33291;46.222;26.460;2023-02-10T03:16:43;98232.47;;;-11.48;71.66
47556;BME280;33291;46.222;26.460;2023-02-10T03:19:09;98266.50;;;-11.29;71.91
47556;BME280;33291;46.222;26.460;2023-02-10T03:21:34;98264.06;;;-11.26;71.71
47556;BME280;33291;46.222;26.460;2023-02-10T03:24:00;98264.06;;;-11.26;71.61
47556;BME280;33291;46.222;26.460;2023-02-10T03:26:30;98261.47;;;-11.29;71.25
47556;BME280;33291;46.222;26.460;2023-02-10T03:28:56;98263.91;;;-11.32;71.04
47556;BME280;33291;46.222;26.460;2023-02-10T03:31:21;98260.41;;;-11.37;71.03
47556;BME280;33291;46.222;26.460;2023-02-10T03:33:47;98268.72;;;-11.41;70.80
47556;BME280;33291;46.222;26.460;2023-02-10T03:36:13;98268.59;;;-11.46;71.17
47556;BME280;33291;46.222;26.460;2023-02-10T03:38:38;98272.81;;;-11.45;71.52
47556;BME280;33291;46.222;26.460;2023-02-10T03:41:04;98272.75;;;-11.47;71.92
47556;BME280;33291;46.222;26.460;2023-02-10T03:43:30;98276.16;;;-11.46;71.89
47556;BME280;33291;46.222;26.460;2023-02-10T03:45:59;98275.03;;;-11.56;71.76
47556;BME280;33291;46.222;26.460;2023-02-10T03:48:25;98280.91;;;-11.55;71.17
47556;BME280;33291;46.222;26.460;2023-02-10T03:50:56;98283.34;;;-11.58;71.01
47556;BME280;33291;46.222;26.460;2023-02-10T03:53:21;98268.94;;;-11.66;71.25
47556;BME280;33291;46.222;26.460;2023-02-10T03:55:47;98264.63;;;-11.70;71.49
47556;BME280;33291;46.222;26.460;2023-02-10T03:58:12;98240.63;;;-11.90;71.91
47556;BME280;33291;46.222;26.460;2023-02-10T04:00:37;98272.19;;;-11.70;72.62
47556;BME280;33291;46.222;26.460;2023-02-10T04:03:03;98268.78;;;-11.72;71.72
47556;BME280;33291;46.222;26.460;2023-02-10T04:05:28;98272.97;;;-11.71;71.39
47556;BME280;33291;46.222;26.460;2023-02-10T04:07:54;98238.81;;;-11.98;71.83
47556;BME280;33291;46.222;26.460;2023-02-10T04:10:19;98273.72;;;-11.75;72.57
47556;BME280;33291;46.222;26.460;2023-02-10T04:12:46;98272.88;;;-11.75;72.13
47556;BME280;33291;46.222;26.460;2023-02-10T04:15:11;98274.56;;;-11.74;72.66
47556;BME280;33291;46.222;26.460;2023-02-10T04:17:37;98274.69;;;-11.70;73.22
47556;BME280;33291;46.222;26.460;2023-02-10T04:20:02;98277.22;;;-11.70;72.42
47556;BME280;33291;46.222;26.460;2023-02-10T04:22:28;98271.38;;;-11.69;72.50
47556;BME280;33291;46.222;26.460;2023-02-10T04:24:53;98267.75;;;-11.79;71.74
47556;BME280;33291;46.222;26.460;2023-02-10T04:27:19;98266.84;;;-11.82;72.30
47556;BME280;33291;46.222;26.460;2023-02-10T04:29:44;98260.91;;;-11.84;73.12
47556;BME280;33291;46.222;26.460;2023-02-10T04:32:10;98269.38;;;-11.81;73.87
47556;BME280;33291;46.222;26.460;2023-02-10T04:34:35;98263.56;;;-11.78;73.97
47556;BME280;33291;46.222;26.460;2023-02-10T04:37:01;98259.44;;;-11.76;72.60
47556;BME280;33291;46.222;26.460;2023-02-10T04:39:26;98262.00;;;-11.74;73.06
47556;BME280;33291;46.222;26.460;2023-02-10T04:41:52;98254.44;;;-11.76;72.74
47556;BME280;33291;46.222;26.460;2023-02-10T04:44:17;98253.50;;;-11.78;72.80
47556;BME280;33291;46.222;26.460;2023-02-10T04:46:42;98210.09;;;-12.06;73.39
47556;BME280;33291;46.222;26.460;2023-02-10T04:49:08;98243.31;;;-11.84;73.96
47556;BME280;33291;46.222;26.460;2023-02-10T04:51:34;98246.81;;;-11.79;74.07
47556;BME280;33291;46.222;26.460;2023-02-10T04:53:59;98243.56;;;-11.75;73.48
47556;BME280;33291;46.222;26.460;2023-02-10T04:56:24;98246.88;;;-11.76;73.20
47556;BME280;33291;46.222;26.460;2023-02-10T04:58:50;98228.22;;;-11.84;73.09
47556;BME280;33291;46.222;26.460;2023-02-10T05:01:15;98254.44;;;-11.76;72.44
47556;BME280;33291;46.222;26.460;2023-02-10T05:03:41;98253.50;;;-11.78;72.26
47556;BME280;33291;46.222;26.460;2023-02-10T05:06:10;98219.50;;;-11.99;72.42
47556;BME280;33291;46.222;26.460;2023-02-10T05:08:36;98254.31;;;-11.81;72.65
47556;BME280;33291;46.222;26.460;2023-02-10T05:11:06;98249.88;;;-11.89;73.16
47556;BME280;33291;46.222;26.460;2023-02-10T05:13:32;98260.84;;;-11.86;73.45
47556;BME280;33291;46.222;26.460;2023-02-10T05:15:57;98258.50;;;-11.80;73.71
47556;BME280;33291;46.222;26.460;2023-02-10T05:18:23;98250.03;;;-11.83;73.31
47556;BME280;33291;46.222;26.460;2023-02-10T05:20:48;98264.53;;;-11.74;73.85
47556;BME280;33291;46.222;26.460;2023-02-10T05:23:14;98253.59;;;-11.76;74.30
47556;BME280;33291;46.222;26.460;2023-02-10T05:25:39;98262.13;;;-11.70;74.00
47556;BME280;33291;46.222;26.460;2023-02-10T05:28:04;98267.22;;;-11.67;72.54
47556;BME280;33291;46.222;26.460;2023-02-10T05:30:30;98266.28;;;-11.72;72.50
47556;BME280;33291;46.222;26.460;2023-02-10T05:32:55;98273.78;;;-11.73;71.91
47556;BME280;33291;46.222;26.460;2023-02-10T05:35:21;98263.41;;;-11.84;72.31
47556;BME280;33291;46.222;26.460;2023-02-10T05:37:46;98284.34;;;-11.85;72.54
47556;BME280;33291;46.222;26.460;2023-02-10T05:40:12;98289.50;;;-11.81;73.36
47556;BME280;33291;46.222;26.460;2023-02-10T05:42:37;98285.38;;;-11.77;73.14
47556;BME280;33291;46.222;26.460;2023-02-10T05:45:03;98289.50;;;-11.81;72.89
47556;BME280;33291;46.222;26.460;2023-02-10T05:47:28;98288.63;;;-11.81;73.37
47556;BME280;33291;46.222;26.460;2023-02-10T05:49:54;98296.34;;;-11.75;73.71
47556;BME280;33291;46.222;26.460;2023-02-10T05:52:19;98293.09;;;-11.71;74.24
47556;BME280;33291;46.222;26.460;2023-02-10T05:54:44;98282.16;;;-11.73;73.95
47556;BME280;33291;46.222;26.460;2023-02-10T05:57:10;98294.88;;;-11.67;73.66
47556;BME280;33291;46.222;26.460;2023-02-10T05:59:35;98295.75;;;-11.65;74.90
47556;BME280;33291;46.222;26.460;2023-02-10T06:02:01;98295.03;;;-11.61;74.90
47556;BME280;33291;46.222;26.460;2023-02-10T06:04:26;98278.22;;;-11.63;75.07
47556;BME280;33291;46.222;26.460;2023-02-10T06:06:52;98286.09;;;-11.49;75.15
47556;BME280;33291;46.222;26.460;2023-02-10T06:09:18;98284.41;;;-11.50;74.54
47556;BME280;33291;46.222;26.460;2023-02-10T06:11:43;98279.53;;;-11.44;74.20
47556;BME280;33291;46.222;26.460;2023-02-10T06:14:09;98283.00;;;-11.39;74.99
47556;BME280;33291;46.222;26.460;2023-02-10T06:16:34;98282.28;;;-11.35;74.83
47556;BME280;33291;46.222;26.460;2023-02-10T06:19:00;98284.88;;;-11.32;74.39
47556;BME280;33291;46.222;26.460;2023-02-10T06:21:25;98281.56;;;-11.31;74.25
47556;BME280;33291;46.222;26.460;2023-02-10T06:23:51;98280.00;;;-11.26;74.84
47556;BME280;33291;46.222;26.460;2023-02-10T06:26:17;98279.22;;;-11.23;74.58
47556;BME280;33291;46.222;26.460;2023-02-10T06:28:43;98275.03;;;-11.22;74.48
47556;BME280;33291;46.222;26.460;2023-02-10T06:31:08;98273.44;;;-11.19;73.99
47556;BME280;33291;46.222;26.460;2023-02-10T06:33:34;98286.22;;;-11.11;74.83
47556;BME280;33291;46.222;26.460;2023-02-10T06:36:04;98273.78;;;-11.05;74.93
47556;BME280;33291;46.222;26.460;2023-02-10T06:38:34;98272.22;;;-11.00;74.20
47556;BME280;33291;46.222;26.460;2023-02-10T06:41:00;98263.78;;;-11.02;73.71
47556;BME280;33291;46.222;26.460;2023-02-10T06:43:25;98268.91;;;-10.99;73.93
47556;BME280;33291;46.222;26.460;2023-02-10T06:45:51;98272.28;;;-10.97;73.97
47556;BME280;33291;46.222;26.460;2023-02-10T06:48:16;98272.09;;;-11.06;72.80
47556;BME280;33291;46.222;26.460;2023-02-10T06:50:42;98259.31;;;-11.14;73.86
47556;BME280;33291;46.222;26.460;2023-02-10T06:53:07;98269.59;;;-11.04;74.66
47556;BME280;33291;46.222;26.460;2023-02-10T06:55:33;98266.31;;;-11.02;74.50
47556;BME280;33291;46.222;26.460;2023-02-10T06:58:00;98269.81;;;-10.95;74.38
47556;BME280;33291;46.222;26.460;2023-02-10T07:00:26;98258.88;;;-10.97;74.15
47556;BME280;33291;46.222;26.460;2023-02-10T07:02:52;98263.19;;;-10.90;74.56
47556;BME280;33291;46.222;26.460;2023-02-10T07:05:18;98275.09;;;-10.84;74.74
47556;BME280;33291;46.222;26.460;2023-02-10T07:07:43;98257.25;;;-10.94;74.12
47556;BME280;33291;46.222;26.460;2023-02-10T07:10:09;98269.88;;;-10.92;74.51
47556;BME280;33291;46.222;26.460;2023-02-10T07:12:35;98264.06;;;-10.90;75.27
47556;BME280;33291;46.222;26.460;2023-02-10T07:15:00;98264.22;;;-10.83;75.14
47556;BME280;33291;46.222;26.460;2023-02-10T07:17:26;98265.81;;;-10.85;75.08
47556;BME280;33291;46.222;26.460;2023-02-10T07:19:52;98264.34;;;-10.77;75.20
47556;BME280;33291;46.222;26.460;2023-02-10T07:22:17;98254.53;;;-10.65;75.23
47556;BME280;33291;46.222;26.460;2023-02-10T07:24:43;98260.09;;;-10.40;74.56
47556;BME280;33291;46.222;26.460;2023-02-10T07:27:08;98257.97;;;-10.20;74.11
47556;BME280;33291;46.222;26.460;2023-02-10T07:29:34;98254.19;;;-9.98;73.03
47556;BME280;33291;46.222;26.460;2023-02-10T07:31:59;98213.75;;;-10.04;72.58
47556;BME280;33291;46.222;26.460;2023-02-10T07:34:26;98250.56;;;-9.67;72.31
47556;BME280;33291;46.222;26.460;2023-02-10T07:36:52;98247.63;;;-9.44;71.83
47556;BME280;33291;46.222;26.460;2023-02-10T07:39:21;98248.69;;;-9.28;71.44
47556;BME280;33291;46.222;26.460;2023-02-10T07:41:47;98247.16;;;-9.20;70.84
47556;BME280;33291;46.222;26.460;2023-02-10T07:44:13;98220.25;;;-9.18;71.09
47556;BME280;33291;46.222;26.460;2023-02-10T07:46:38;98247.59;;;-8.92;70.75
47556;BME280;33291;46.222;26.460;2023-02-10T07:49:04;98237.72;;;-8.77;70.90
47556;BME280;33291;46.222;26.460;2023-02-10T07:51:29;98233.75;;;-8.59;71.92
47556;BME280;33291;46.222;26.460;2023-02-10T07:53:55;98233.06;;;-8.46;71.35
47556;BME280;33291;46.222;26.460;2023-02-10T07:56:20;98236.72;;;-8.22;71.27
47556;BME280;33291;46.222;26.460;2023-02-10T07:58:46;98228.50;;;-8.02;71.61
47556;BME280;33291;46.222;26.460;2023-02-10T08:01:11;98216.00;;;-7.89;71.32
47556;BME280;33291;46.222;26.460;2023-02-10T08:03:37;98214.53;;;-7.68;70.21
47556;BME280;33291;46.222;26.460;2023-02-10T08:06:03;98215.44;;;-7.63;69.45
47556;BME280;33291;46.222;26.460;2023-02-10T08:08:29;98205.41;;;-7.51;69.23
47556;BME280;33291;46.222;26.460;2023-02-10T08:10:55;98207.19;;;-7.39;69.92
47556;BME280;33291;46.222;26.460;2023-02-10T08:13:21;98195.47;;;-7.27;70.18
47556;BME280;33291;46.222;26.460;2023-02-10T08:15:46;98198.19;;;-7.06;69.63
47556;BME280;33291;46.222;26.460;2023-02-10T08:18:12;98202.53;;;-6.83;68.61
47556;BME280;33291;46.222;26.460;2023-02-10T08:20:37;98176.38;;;-6.81;69.19
47556;BME280;33291;46.222;26.460;2023-02-10T08:23:05;98195.94;;;-6.52;69.05
47556;BME280;33291;46.222;26.460;2023-02-10T08:25:31;98190.97;;;-6.32;69.62
47556;BME280;33291;46.222;26.460;2023-02-10T08:27:57;98155.47;;;-6.32;69.72
47556;BME280;33291;46.222;26.460;2023-02-10T08:30:23;98179.22;;;-5.91;69.27
47556;BME280;33291;46.222;26.460;2023-02-10T08:32:49;98175.03;;;-5.72;68.98
47556;BME280;33291;46.222;26.460;2023-02-10T08:35:14;98188.59;;;-5.47;68.68
47556;BME280;33291;46.222;26.460;2023-02-10T08:37:39;98182.69;;;-5.27;68.05
47556;BME280;33291;46.222;26.460;2023-02-10T08:40:05;98175.91;;;-5.11;68.21
47556;BME280;33291;46.222;26.460;2023-02-10T08:42:32;98186.88;;;-4.88;68.87
47556;BME280;33291;46.222;26.460;2023-02-10T08:44:58;98176.66;;;-4.69;68.31
47556;BME280;33291;46.222;26.460;2023-02-10T08:47:23;98170.69;;;-4.53;68.45
47556;BME280;33291;46.222;26.460;2023-02-10T08:49:49;98177.38;;;-4.30;68.28
47556;BME280;33291;46.222;26.460;2023-02-10T08:52:15;98170.53;;;-4.09;66.97
47556;BME280;33291;46.222;26.460;2023-02-10T08:54:41;98179.75;;;-3.90;66.35
47556;BME280;33291;46.222;26.460;2023-02-10T08:57:06;98176.22;;;-3.67;66.14
47556;BME280;33291;46.222;26.460;2023-02-10T08:59:32;98176.94;;;-3.50;64.78
47556;BME280;33291;46.222;26.460;2023-02-10T09:01:58;98171.69;;;-3.28;64.24
47556;BME280;33291;46.222;26.460;2023-02-10T09:04:23;98168.06;;;-3.03;62.48
47556;BME280;33291;46.222;26.460;2023-02-10T09:06:49;98170.38;;;-2.76;61.73
47556;BME280;33291;46.222;26.460;2023-02-10T09:09:18;98161.69;;;-2.60;60.16
47556;BME280;33291;46.222;26.460;2023-02-10T09:11:45;98156.44;;;-2.44;60.13
47556;BME280;33291;46.222;26.460;2023-02-10T09:14:11;98162.91;;;-2.20;59.51
47556;BME280;33291;46.222;26.460;2023-02-10T09:16:37;98158.38;;;-1.98;57.71
47556;BME280;33291;46.222;26.460;2023-02-10T09:19:02;98148.84;;;-1.84;56.97
47556;BME280;33291;46.222;26.460;2023-02-10T09:21:29;98154.50;;;-1.65;59.03
47556;BME280;33291;46.222;26.460;2023-02-10T09:23:55;98156.16;;;-1.61;59.59
47556;BME280;33291;46.222;26.460;2023-02-10T09:26:20;98138.94;;;-1.49;58.12
47556;BME280;33291;46.222;26.460;2023-02-10T09:28:45;98142.03;;;-1.29;57.59
47556;BME280;33291;46.222;26.460;2023-02-10T09:31:12;98134.84;;;-1.08;56.19
47556;BME280;33291;46.222;26.460;2023-02-10T09:33:39;98120.03;;;-0.89;55.57
47556;BME280;33291;46.222;26.460;2023-02-10T09:36:05;98126.63;;;-0.76;55.40
47556;BME280;33291;46.222;26.460;2023-02-10T09:38:32;98137.31;;;-0.57;54.98
47556;BME280;33291;46.222;26.460;2023-02-10T09:54:54;98111.06;;;0.52;50.46
47556;BME280;33291;46.222;26.460;2023-02-10T09:59:55;98100.94;;;0.82;47.04
47556;BME280;33291;46.222;26.460;2023-02-10T10:02:33;98114.88;;;1.06;46.07
47556;BME280;33291;46.222;26.460;2023-02-10T10:05:00;98090.97;;;1.03;45.85
47556;BME280;33291;46.222;26.460;2023-02-10T10:07:35;98106.72;;;1.23;46.15
47556;BME280;33291;46.222;26.460;2023-02-10T10:10:14;98106.38;;;1.36;45.81
47556;BME280;33291;46.222;26.460;2023-02-10T10:12:43;98093.44;;;1.39;45.62
47556;BME280;33291;46.222;26.460;2023-02-10T10:15:16;98102.28;;;1.60;45.10
47556;BME280;33291;46.222;26.460;2023-02-10T10:31:32;98074.69;;;2.50;42.14
47556;BME280;33291;46.222;26.460;2023-02-10T10:36:37;98071.06;;;2.82;40.67
47556;BME280;33291;46.222;26.460;2023-02-10T10:41:55;98065.81;;;2.86;40.66
47556;BME280;33291;46.222;26.460;2023-02-10T10:44:21;98072.34;;;2.94;40.52
47556;BME280;33291;46.222;26.460;2023-02-10T10:47:04;98060.97;;;3.01;40.10
47556;BME280;33291;46.222;26.460;2023-02-10T10:49:35;98052.19;;;3.07;39.54
47556;BME280;33291;46.222;26.460;2023-02-10T10:52:01;98052.78;;;3.14;39.51
47556;BME280;33291;46.222;26.460;2023-02-10T10:54:27;98045.06;;;3.14;39.35
47556;BME280;33291;46.222;26.460;2023-02-10T10:57:00;98044.75;;;3.23;38.81
47556;BME280;33291;46.222;26.460;2023-02-10T10:59:53;98042.84;;;3.28;38.92
47556;BME280;33291;46.222;26.460;2023-02-10T11:02:22;98024.03;;;3.26;38.93
47556;BME280;33291;46.222;26.460;2023-02-10T11:05:08;98032.22;;;3.37;39.00
47556;BME280;33291;46.222;26.460;2023-02-10T11:07:36;98036.31;;;3.43;39.47
47556;BME280;33291;46.222;26.460;2023-02-10T11:10:04;98040.44;;;3.47;39.31
47556;BME280;33291;46.222;26.460;2023-02-10T11:14:58;98026.00;;;3.43;38.66
47556;BME280;33291;46.222;26.460;2023-02-10T11:17:34;98033.22;;;3.57;38.58
47556;BME280;33291;46.222;26.460;2023-02-10T11:20:24;98032.66;;;3.49;38.50
47556;BME280;33291;46.222;26.460;2023-02-10T11:23:14;98031.81;;;3.48;37.50
47556;BME280;33291;46.222;26.460;2023-02-10T11:25:40;98030.94;;;3.49;37.78
47556;BME280;33291;46.222;26.460;2023-02-10T11:28:17;98031.34;;;3.61;36.92
47556;BME280;33291;46.222;26.460;2023-02-10T11:30:46;98012.25;;;3.66;37.73
47556;BME280;33291;46.222;26.460;2023-02-10T11:33:22;98026.28;;;3.81;37.65
47556;BME280;33291;46.222;26.460;2023-02-10T11:35:49;98021.19;;;3.80;37.47
47556;BME280;33291;46.222;26.460;2023-02-10T11:38:20;98024.50;;;3.83;37.19
47556;BME280;33291;46.222;26.460;2023-02-10T11:40:58;98025.56;;;3.78;38.38
47556;BME280;33291;46.222;26.460;2023-02-10T11:43:37;98016.59;;;3.64;37.73
47556;BME280;33291;46.222;26.460;2023-02-10T11:46:06;98016.38;;;3.70;37.01
47556;BME280;33291;46.222;26.460;2023-02-10T11:48:34;97998.94;;;3.77;37.93
47556;BME280;33291;46.222;26.460;2023-02-10T11:51:12;98009.25;;;3.99;37.95
47556;BME280;33291;46.222;26.460;2023-02-10T11:53:39;98008.91;;;4.08;37.16
47556;BME280;33291;46.222;26.460;2023-02-10T12:01:51;98004.19;;;4.18;36.22
47556;BME280;33291;46.222;26.460;2023-02-10T12:04:32;97996.03;;;4.29;36.17
47556;BME280;33291;46.222;26.460;2023-02-10T12:12:38;97997.53;;;4.76;36.19
47556;BME280;33291;46.222;26.460;2023-02-10T12:15:16;97994.81;;;4.79;36.25
47556;BME280;33291;46.222;26.460;2023-02-10T12:18:05;97990.00;;;4.90;34.87
47556;BME280;33291;46.222;26.460;2023-02-10T12:21:20;97995.47;;;5.03;34.25
47556;BME280;33291;46.222;26.460;2023-02-10T12:28:57;97984.13;;;5.07;34.47
47556;BME280;33291;46.222;26.460;2023-02-10T12:45:54;97986.50;;;5.12;34.15
47556;BME280;33291;46.222;26.460;2023-02-10T12:53:50;97976.38;;;5.07;35.07
47556;BME280;33291;46.222;26.460;2023-02-10T12:56:53;97985.50;;;5.14;34.48
47556;BME280;33291;46.222;26.460;2023-02-10T12:59:24;97992.00;;;5.23;35.22
47556;BME280;33291;46.222;26.460;2023-02-10T13:01:55;97975.59;;;5.24;35.32
47556;BME280;33291;46.222;26.460;2023-02-10T13:04:24;97990.00;;;5.30;34.98
47556;BME280;33291;46.222;26.460;2023-02-10T13:07:08;97989.84;;;5.14;35.38
47556;BME280;33291;46.222;26.460;2023-02-10T13:09:40;97990.13;;;5.08;35.28
47556;BME280;33291;46.222;26.460;2023-02-10T13:12:26;97977.53;;;5.00;34.30
47556;BME280;33291;46.222;26.460;2023-02-10T13:15:01;97980.59;;;4.89;34.15
47556;BME280;33291;46.222;26.460;2023-02-10T13:17:38;97981.13;;;4.77;33.53
47556;BME280;33291;46.222;26.460;2023-02-10T13:20:34;97990.72;;;4.73;33.82
47556;BME280;33291;46.222;26.460;2023-02-10T13:23:03;97987.53;;;4.68;34.23
47556;BME280;33291;46.222;26.460;2023-02-10T13:28:14;97988.06;;;4.56;35.03
47556;BME280;33291;46.222;26.460;2023-02-10T13:36:38;97989.31;;;4.25;36.65
47556;BME280;33291;46.222;26.460;2023-02-10T13:39:16;97988.72;;;4.18;36.34
47556;BME280;33291;46.222;26.460;2023-02-10T13:41:45;97984.78;;;4.09;36.83
47556;BME280;33291;46.222;26.460;2023-02-10T13:46:50;97998.28;;;3.94;36.94
47556;BME280;33291;46.222;26.460;2023-02-10T13:49:18;97993.78;;;3.77;36.08
47556;BME280;33291;46.222;26.460;2023-02-10T13:51:44;98000.44;;;3.61;36.99
47556;BME280;33291;46.222;26.460;2023-02-10T13:54:29;97992.75;;;3.59;37.71
47556;BME280;33291;46.222;26.460;2023-02-10T13:56:56;97989.22;;;3.84;37.30
47556;BME280;33291;46.222;26.460;2023-02-10T13:59:26;98001.06;;;4.32;35.49
47556;BME280;33291;46.222;26.460;2023-02-10T14:06:50;97994.03;;;3.71;36.27
47556;BME280;33291;46.222;26.460;2023-02-10T14:11:55;98008.84;;;3.88;36.33
47556;BME280;33291;46.222;26.460;2023-02-10T14:14:36;98013.53;;;3.78;36.32
47556;BME280;33291;46.222;26.460;2023-02-10T14:17:15;98009.78;;;3.85;36.30
47556;BME280;33291;46.222;26.460;2023-02-10T14:19:47;98008.41;;;4.83;35.01
47556;BME280;33291;46.222;26.460;2023-02-10T14:22:26;98003.47;;;6.11;33.25
47556;BME280;33291;46.222;26.460;2023-02-10T14:24:55;98004.97;;;7.84;31.47
47556;BME280;33291;46.222;26.460;2023-02-10T14:27:25;98004.88;;;9.36;29.19
47556;BME280;33291;46.222;26.460;2023-02-10T14:29:56;98009.81;;;7.74;31.33
47556;BME280;33291;46.222;26.460;2023-02-10T14:32:24;98007.97;;;6.08;36.48
47556;BME280;33291;46.222;26.460;2023-02-10T14:37:20;98010.44;;;4.13;40.81
47556;BME280;33291;46.222;26.460;2023-02-10T14:40:16;98026.50;;;3.53;43.03
47556;BME280;33291;46.222;26.460;2023-02-10T14:42:42;98019.03;;;2.98;43.72
47556;BME280;33291;46.222;26.460;2023-02-10T14:45:21;98024.31;;;2.70;44.06
47556;BME280;33291;46.222;26.460;2023-02-10T14:47:48;98024.44;;;2.40;45.56
47556;BME280;33291;46.222;26.460;2023-02-10T14:50:39;98016.94;;;2.07;46.35
47556;BME280;33291;46.222;26.460;2023-02-10T14:53:05;98017.69;;;1.82;46.17
47556;BME280;33291;46.222;26.460;2023-02-10T14:55:38;97987.16;;;1.45;46.71
47556;BME280;33291;46.222;26.460;2023-02-10T15:00:39;98018.47;;;1.28;47.78